Warning: Javascript must be enabled to use all the features on this page!


Page Loading - Please Wait...

Click to hideNews Bulletins

Peak Streamflow for the Nation

USGS 07203000 VERMEJO RIVER NEAR DAWSON, NM

Colfax County, New Mexico
Hydrologic Unit Code 11080001
Latitude  36°40'51.7", Longitude 104°47'11.02" NAD83
Drainage area 344  square miles
Gage datum 6,378 feet above NAVD88
Output formats
Table
Graph
Tab-separated file
peakfq (watstore) format
Reselect output format
Water
Year
Date Gage
Height
(feet)
Stream-
flow
(cfs)
1929 1929-07-18   2,100
1930 1930-08-27   2,000
1931 1931-08-23 4.533 588
1932 1932-07-10 6.423 2,400
1933 1933-07-21 5.053 752
1934 1934-06-30 5.306 1,200
1935 1935-09-24 4.286 3,720
1936 1936-08-07 7.993 3,700
1937 1937-08-04 6.893 2,500
1938 1938-08-03 7.813 3,600
1939 1938-10-08 5.463 1,360
1940 1940-08-06 11.883 9,000
1941 1941-05-02 7.963 3,700
1942 1942-04-23 8.033 3,800
1943 1943-08-16 4.883 931
1944 1944-07-05 5.423 1,200
1945 1945-08-20 5.423 1,250
1946 1946-08-29 6.256 1,900
1947 1947-08-11 5.493 900
1948 1948-05-31 11.003 5,100
1949 1949-09-09 9.203 3,320
1950 1950-07-21 7.903 2,320
1951 1951-07-18 4.123 317
1952 1952-08-04 6.403 1,390
1953 1953-05-27 8.803 3,160
1954 1954-07-24 4.803 755
1955 1955-08-08 7.903 2,540
1956 1956-08-02 4.143 486
1957 1957-08-04 11.253 5,000
1958 1958-05-23 5.933 1,380
1959 1959-08-15 5.003 920
1960 1960-08-03 5.423 1,120
1961 1961-07-31 5.303 1,060
1962 1962-09-19 5.883 1,360
1963 1963-09-21 7.513 2,320
1964 1964-05-26 4.083 482
1965 1965-06-17 15.253 12,600
1966 1966-08-21 8.003 2,700
1967 1967-09-01 6.333 1,490
1968 1968-07-26 5.883 1,190
1969 1969-06-08 6.573 1,660
1970 1970-07-24 7.003 1,960
1971 1971-07-15 6.103 1,330
1972 1972-09-02 7.003 1,960
1973 1973-09-09 5.033 600
1974 1974-08-05 5.293 768
1975 1975-08-01 6.253 1,430
1976 1976-07-20 11.223 5,740
1977 1977-07-25 9.403 3,870
1978 1978-07-09 7.023 1,970
1979 1979-08-16 6.953 1,860
1980 1980-05-16 5.043 464
1981 1981-08-15 7.773 2,520
1982 1982-08-15 8.943 3,460
1983 1983-06-09 4.992,3 452
1984 1984-08-24 7.203 2,040
1985 1985-05-22 4.686 221
1986 1986-09-07 6.03 1,120
1987 1987-05-14 4.84 322
1988 1988-06-09 14.23 10,400
1989 1989-08-06 3.932 151
1990 1990-07-10 4.63 366
1991 1991-07-11 9.61 3,650
1992 1992-08-10 5.93 759
1993 1993-08-28 6.44 1,020
1994 1994-08-19 7.58 1,540
1995 1995-05-29 6.75 1,290
1996 1996-08-30 9.55 3,780
1997 1997-06-10 6.47 1,110
1998 1998-08-20 5.62 649
1999 1999-08-05 9.82 4,230
2000 2000-07-17 5.45 1,060
2001 2000-10-28 3.94 100
2002 2002-09-01 11.26 5,1702
2003 2003-06-16 3.47 38.0
2004 2004-07-26 5.61 1,280
2005 2005-08-14 4.55 263
2006 2006-08-19 9.40 13,000
2007 2007-07-31 4.27 196
2008 2008-06-29 5.17 642
2009 2009-07-30 4.54 324
2010 2010-07-13 4.98 545
2011 2011-09-15 4.07 102
2012 2012-04-12 3.49 11.0
2013 2013-08-10 5.95 1,010
2014 2014-08-01 5.96 568
2015 2015-08-14 6.22 688
2016 2016-06-23 4.85 164
2017 2017-05-09 9.395 2,040
2018 2018-08-18   124
2019 2019-05-18   77.4
2020 2020-08-04   154
2021 2021-05-22   3,270
?
  Peak Gage-Height Qualification Codes.
?
  Peak Streamflow Qualification Codes.